createdAt,value
2023-05-22T00:01:15.038Z,15.90
2023-05-22T00:03:42.078Z,15.70
2023-05-22T00:06:10.270Z,15.60
2023-05-22T00:08:37.327Z,15.60
2023-05-22T00:11:05.081Z,15.60
2023-05-22T00:13:32.231Z,15.50
2023-05-22T00:15:59.369Z,15.50
2023-05-22T00:18:27.346Z,15.40
2023-05-22T00:20:54.428Z,15.50
2023-05-22T00:23:22.082Z,15.60
2023-05-22T00:25:50.758Z,15.50
2023-05-22T00:28:17.830Z,15.50
2023-05-22T00:30:46.008Z,15.50
2023-05-22T00:33:13.216Z,15.40
2023-05-22T00:35:40.197Z,15.30
2023-05-22T00:38:08.046Z,15.40
2023-05-22T00:40:35.244Z,15.40
2023-05-22T00:43:08.473Z,15.40
2023-05-22T00:45:36.431Z,15.40
2023-05-22T00:48:03.517Z,15.30
2023-05-22T00:50:30.878Z,15.40
2023-05-22T00:52:57.956Z,15.30
2023-05-22T00:55:24.978Z,15.30
2023-05-22T00:57:52.686Z,15.20
2023-05-22T01:00:20.469Z,15.30
2023-05-22T01:02:47.966Z,15.30
2023-05-22T01:05:18.365Z,15.20
2023-05-22T01:07:48.969Z,15.30
2023-05-22T01:10:16.220Z,15.20
2023-05-22T01:13:17.473Z,15.20
2023-05-22T01:16:02.381Z,15.20
2023-05-22T01:18:41.855Z,15.20
2023-05-22T01:21:30.271Z,15.20
2023-05-22T01:24:16.852Z,15.10
2023-05-22T01:26:46.988Z,15.10
2023-05-22T01:29:38.671Z,15.00
2023-05-22T01:32:07.596Z,15.10
2023-05-22T01:34:37.277Z,15.00
2023-05-22T01:37:05.426Z,15.00
2023-05-22T01:39:33.303Z,15.00
2023-05-22T01:42:00.667Z,15.00
2023-05-22T01:44:28.035Z,15.00
2023-05-22T01:46:59.125Z,15.00
2023-05-22T01:49:27.982Z,14.90
2023-05-22T01:52:03.709Z,14.80
2023-05-22T01:54:39.256Z,14.90
2023-05-22T01:57:14.467Z,14.80
2023-05-22T01:59:47.573Z,14.90
2023-05-22T02:02:18.049Z,14.80
2023-05-22T02:05:00.776Z,14.80
2023-05-22T02:07:28.611Z,14.80
2023-05-22T02:09:57.921Z,14.70
2023-05-22T02:12:25.743Z,14.80
2023-05-22T02:14:52.935Z,14.80
2023-05-22T02:17:22.262Z,14.70
2023-05-22T02:19:49.367Z,14.80
2023-05-22T02:22:16.473Z,14.80
2023-05-22T02:24:50.686Z,14.70
2023-05-22T02:27:17.843Z,14.70
2023-05-22T02:29:44.821Z,14.60
2023-05-22T02:32:11.882Z,14.70
2023-05-22T02:34:38.951Z,14.60
2023-05-22T02:37:06.118Z,14.50
2023-05-22T02:39:33.314Z,14.60
2023-05-22T02:42:00.834Z,14.60
2023-05-22T02:44:31.212Z,14.70
2023-05-22T02:46:59.512Z,14.70
2023-05-22T02:49:26.529Z,14.60
2023-05-22T02:51:53.645Z,14.60
2023-05-22T02:54:20.848Z,14.60
2023-05-22T02:56:47.932Z,14.50
2023-05-22T02:59:16.552Z,14.50
2023-05-22T03:01:44.479Z,14.40
2023-05-22T03:04:13.952Z,14.40
2023-05-22T03:06:41.857Z,14.40
2023-05-22T03:09:09.035Z,14.40
2023-05-22T03:11:35.998Z,14.30
2023-05-22T03:14:03.729Z,14.30
2023-05-22T03:16:32.944Z,14.20
2023-05-22T03:19:13.968Z,14.20
2023-05-22T03:21:41.534Z,14.20
2023-05-22T03:24:08.697Z,14.20
2023-05-22T03:26:35.947Z,14.20
2023-05-22T03:29:06.556Z,14.10
2023-05-22T03:31:34.855Z,14.10
2023-05-22T03:34:07.776Z,14.10
2023-05-22T03:36:37.187Z,14.00
2023-05-22T03:39:05.510Z,14.00
2023-05-22T03:41:37.242Z,14.00
2023-05-22T03:44:05.833Z,13.90
2023-05-22T03:46:33.830Z,14.00
2023-05-22T03:49:02.085Z,14.00
2023-05-22T03:51:29.096Z,14.10
2023-05-22T03:53:56.238Z,14.00
2023-05-22T03:56:23.254Z,14.10
2023-05-22T03:58:50.620Z,14.10
2023-05-22T04:01:18.142Z,14.00
2023-05-22T04:03:45.251Z,14.00
2023-05-22T04:06:13.868Z,14.00
2023-05-22T04:08:41.210Z,14.10
2023-05-22T04:11:08.381Z,14.10
2023-05-22T04:13:35.512Z,14.00
2023-05-22T04:16:04.309Z,14.00
2023-05-22T04:18:31.427Z,14.00
2023-05-22T04:20:58.481Z,14.00
2023-05-22T04:23:25.637Z,14.00
2023-05-22T04:25:52.907Z,14.00
2023-05-22T04:28:23.245Z,13.90
2023-05-22T04:30:50.408Z,14.00
2023-05-22T04:33:19.369Z,14.10
2023-05-22T04:35:46.443Z,14.10
2023-05-22T04:38:13.465Z,14.10
2023-05-22T04:40:40.683Z,14.10
2023-05-22T04:43:08.634Z,14.20
2023-05-22T04:45:35.694Z,14.20
2023-05-22T04:48:03.222Z,14.10
2023-05-22T04:50:36.137Z,14.20
2023-05-22T04:53:06.447Z,14.20
2023-05-22T04:55:37.065Z,14.20
2023-05-22T04:58:05.966Z,14.20
2023-05-22T05:00:33.300Z,14.20
2023-05-22T05:03:00.666Z,14.20
2023-05-22T05:05:28.010Z,14.30
2023-05-22T05:07:56.332Z,14.40
2023-05-22T05:10:23.818Z,14.40
2023-05-22T05:12:51.351Z,14.40
2023-05-22T05:15:18.912Z,14.50
2023-05-22T05:17:46.643Z,14.40
2023-05-22T05:20:14.699Z,14.50
2023-05-22T05:22:44.008Z,14.50
2023-05-22T05:25:13.181Z,14.50
2023-05-22T05:27:40.709Z,14.50
2023-05-22T05:30:09.471Z,14.60
2023-05-22T05:33:02.232Z,14.60
2023-05-22T05:35:39.599Z,14.60
2023-05-22T05:38:10.042Z,14.60
2023-05-22T05:40:39.952Z,14.70
2023-05-22T05:43:09.263Z,14.80
2023-05-22T05:45:36.760Z,14.80
2023-05-22T05:48:06.502Z,14.90
2023-05-22T05:50:35.892Z,15.00
2023-05-22T05:53:03.375Z,15.00
2023-05-22T05:55:32.720Z,15.10
2023-05-22T05:58:03.540Z,15.10
2023-05-22T06:00:50.850Z,15.10
2023-05-22T06:03:18.061Z,15.10
2023-05-22T06:05:54.070Z,15.20
2023-05-22T06:08:27.145Z,15.20
2023-05-22T06:10:54.632Z,15.20
2023-05-22T06:13:33.548Z,15.20
2023-05-22T06:16:06.433Z,15.20
2023-05-22T06:18:34.746Z,15.30
2023-05-22T06:21:02.005Z,15.30
2023-05-22T06:23:29.058Z,15.40
2023-05-22T06:25:57.424Z,15.50
2023-05-22T06:28:25.820Z,15.50
2023-05-22T06:30:53.000Z,15.50
2023-05-22T06:33:22.955Z,15.60
2023-05-22T06:35:50.573Z,15.60
2023-05-22T06:38:17.843Z,15.60
2023-05-22T06:40:45.245Z,15.70
2023-05-22T06:43:21.762Z,15.70
2023-05-22T06:45:56.228Z,15.80
2023-05-22T06:48:23.324Z,15.80
2023-05-22T06:50:59.520Z,15.80
2023-05-22T06:53:27.050Z,15.80
2023-05-22T06:55:54.842Z,15.90
2023-05-22T06:58:32.205Z,15.90
2023-05-22T07:01:00.826Z,15.90
2023-05-22T07:03:34.929Z,15.90
2023-05-22T07:06:20.474Z,16.00
2023-05-22T07:08:47.930Z,16.10
2023-05-22T07:11:14.873Z,16.20
2023-05-22T07:13:41.984Z,16.20
2023-05-22T07:16:09.095Z,16.30
2023-05-22T07:18:36.466Z,16.30
2023-05-22T07:21:03.602Z,16.40
2023-05-22T07:23:30.674Z,16.40
2023-05-22T07:25:57.930Z,16.50
2023-05-22T07:28:31.136Z,16.50
2023-05-22T07:31:07.768Z,16.60
2023-05-22T07:33:34.982Z,16.60
2023-05-22T07:36:02.097Z,16.70
2023-05-22T07:38:29.241Z,16.60
2023-05-22T07:41:00.346Z,16.70
2023-05-22T07:43:28.986Z,16.70
2023-05-22T07:45:57.397Z,16.60
2023-05-22T07:48:28.470Z,16.50
2023-05-22T07:50:55.650Z,16.60
2023-05-22T07:53:23.235Z,16.60
2023-05-22T07:55:53.421Z,16.80
2023-05-22T07:58:21.050Z,16.80
2023-05-22T08:00:49.895Z,16.70
2023-05-22T08:03:18.022Z,16.50
2023-05-22T08:05:45.546Z,16.70
2023-05-22T08:08:12.814Z,16.90
2023-05-22T08:13:10.542Z,17.00
2023-05-22T08:15:37.579Z,16.70
2023-05-22T08:18:04.640Z,16.90
2023-05-22T08:20:31.730Z,17.10
2023-05-22T08:22:59.340Z,17.20
2023-05-22T08:25:26.324Z,17.30
2023-05-22T08:27:53.392Z,17.30
2023-05-22T08:30:20.612Z,17.50
2023-05-22T08:32:47.715Z,17.50
2023-05-22T08:35:14.826Z,17.70
2023-05-22T08:37:41.827Z,17.70
2023-05-22T08:40:14.785Z,17.70
2023-05-22T08:42:42.474Z,17.80
2023-05-22T08:45:09.890Z,17.60
2023-05-22T08:47:37.936Z,17.60
2023-05-22T08:50:05.289Z,17.90
2023-05-22T08:52:42.904Z,18.00
2023-05-22T08:55:10.890Z,17.90
2023-05-22T08:57:38.380Z,18.00
2023-05-22T09:00:07.905Z,18.10
2023-05-22T09:02:35.932Z,18.10
2023-05-22T09:05:05.379Z,18.30
2023-05-22T09:07:32.501Z,18.30
2023-05-22T09:09:59.483Z,18.30
2023-05-22T09:12:29.346Z,18.80
2023-05-22T09:14:58.749Z,19.10
2023-05-22T09:17:27.299Z,19.20
2023-05-22T09:19:54.676Z,19.00
2023-05-22T09:22:24.285Z,19.00
2023-05-22T09:24:52.058Z,19.30
2023-05-22T09:27:23.431Z,19.30
2023-05-22T09:29:59.294Z,18.90
2023-05-22T09:32:29.928Z,19.20
2023-05-22T09:35:04.175Z,19.50
2023-05-22T09:37:35.786Z,19.60
2023-05-22T09:40:07.577Z,19.80
2023-05-22T09:42:35.857Z,19.70
2023-05-22T09:45:08.204Z,19.80
2023-05-22T09:47:37.433Z,20.30
2023-05-22T09:50:07.270Z,20.40
2023-05-22T09:52:35.622Z,20.60
2023-05-22T09:55:07.332Z,20.60
2023-05-22T09:57:45.122Z,20.60
2023-05-22T10:00:15.703Z,20.70
2023-05-22T10:02:48.443Z,20.70
2023-05-22T10:05:24.947Z,20.80
2023-05-22T10:07:56.667Z,21.00
2023-05-22T10:10:25.455Z,20.70
2023-05-22T10:13:00.546Z,20.90
2023-05-22T10:15:28.489Z,21.00
2023-05-22T10:17:56.390Z,21.20
2023-05-22T10:20:24.328Z,21.40
2023-05-22T10:22:51.664Z,21.60
2023-05-22T10:25:18.676Z,21.60
2023-05-22T10:27:46.288Z,21.60
2023-05-22T10:30:40.244Z,21.40
2023-05-22T10:33:41.014Z,21.50
2023-05-22T10:36:12.792Z,21.80
2023-05-22T10:38:46.042Z,21.40
2023-05-22T10:41:13.951Z,22.00
2023-05-22T10:43:43.132Z,21.70
2023-05-22T10:46:17.037Z,21.60
2023-05-22T10:48:49.709Z,21.90
2023-05-22T10:51:23.836Z,21.80
2023-05-22T10:53:59.141Z,21.90
2023-05-22T10:56:34.406Z,22.20
2023-05-22T10:59:05.022Z,22.50
2023-05-22T11:01:37.862Z,22.40
2023-05-22T11:04:16.067Z,22.80
2023-05-22T11:07:04.189Z,22.80
2023-05-22T11:09:31.420Z,22.90
2023-05-22T11:12:21.213Z,23.00
2023-05-22T11:14:49.006Z,23.20
2023-05-22T11:17:23.199Z,22.70
2023-05-22T11:20:07.451Z,22.80
2023-05-22T11:22:42.421Z,22.70
2023-05-22T11:25:17.871Z,22.90
2023-05-22T11:27:46.585Z,22.60
2023-05-22T11:30:15.062Z,22.80
2023-05-22T11:32:47.100Z,23.10
2023-05-22T11:35:19.385Z,23.20
2023-05-22T11:37:47.373Z,22.70
2023-05-22T11:40:17.132Z,22.50
2023-05-22T11:42:44.554Z,23.00
2023-05-22T11:45:12.073Z,22.90
2023-05-22T11:47:39.900Z,23.10
2023-05-22T11:50:10.399Z,23.20
2023-05-22T11:52:40.414Z,22.80
2023-05-22T11:55:08.737Z,23.10
2023-05-22T11:57:36.967Z,23.40
2023-05-22T12:00:08.904Z,23.40
2023-05-22T12:02:39.425Z,23.10
2023-05-22T12:05:10.261Z,23.60
2023-05-22T12:07:37.769Z,23.80
2023-05-22T12:10:07.314Z,24.00
2023-05-22T12:12:34.969Z,23.80
2023-05-22T12:15:06.680Z,24.00
2023-05-22T12:17:37.231Z,23.60
2023-05-22T12:20:05.512Z,23.80
2023-05-22T12:22:32.725Z,24.10
2023-05-22T12:24:59.784Z,24.10
2023-05-22T12:27:33.173Z,23.60
2023-05-22T12:30:10.412Z,23.70
2023-05-22T12:32:39.823Z,24.20
2023-05-22T12:35:07.767Z,24.10
2023-05-22T12:37:37.391Z,24.30
2023-05-22T12:40:05.310Z,24.40
2023-05-22T12:42:32.320Z,24.20
2023-05-22T12:45:01.809Z,24.10
2023-05-22T12:47:28.947Z,23.30
2023-05-22T12:49:56.023Z,23.90
2023-05-22T12:52:26.440Z,24.10
2023-05-22T12:54:56.653Z,23.70
2023-05-22T12:57:28.430Z,24.10
2023-05-22T12:59:55.823Z,23.90
2023-05-22T13:02:23.061Z,24.60
2023-05-22T13:04:50.262Z,24.50
2023-05-22T13:07:17.420Z,24.30
2023-05-22T13:09:44.576Z,23.90
2023-05-22T13:12:11.761Z,24.70
2023-05-22T13:14:40.520Z,24.60
2023-05-22T13:17:08.230Z,24.40
2023-05-22T13:19:35.458Z,24.30
2023-05-22T13:22:02.750Z,24.10
2023-05-22T13:24:30.472Z,23.50
2023-05-22T13:26:57.558Z,23.90
2023-05-22T13:29:25.494Z,24.10
2023-05-22T13:31:52.697Z,23.30
2023-05-22T13:34:20.635Z,23.70
2023-05-22T13:36:47.864Z,23.80
2023-05-22T13:39:15.006Z,23.80
2023-05-22T13:41:42.185Z,23.80
2023-05-22T13:44:09.298Z,23.60
2023-05-22T13:46:37.966Z,23.60
2023-05-22T13:49:07.274Z,24.10
2023-05-22T13:51:34.286Z,23.40
2023-05-22T13:54:03.148Z,23.30
2023-05-22T13:56:30.269Z,23.60
2023-05-22T13:58:57.443Z,23.40
2023-05-22T14:01:24.819Z,24.10
2023-05-22T14:03:54.821Z,24.10
2023-05-22T14:06:22.061Z,24.00
2023-05-22T14:08:49.077Z,23.60
2023-05-22T14:11:16.208Z,23.60
2023-05-22T14:13:43.838Z,23.80
2023-05-22T14:16:10.891Z,23.20
2023-05-22T14:18:41.406Z,23.10
2023-05-22T14:21:08.448Z,23.10
2023-05-22T14:23:35.578Z,23.70
2023-05-22T14:26:02.595Z,23.60
2023-05-22T14:28:31.756Z,24.00
2023-05-22T14:30:59.063Z,24.00
2023-05-22T14:33:26.458Z,23.80
2023-05-22T14:35:55.022Z,23.30
2023-05-22T14:38:22.122Z,23.40
2023-05-22T14:40:49.850Z,23.20
2023-05-22T14:43:16.915Z,23.50
2023-05-22T14:45:45.332Z,24.00
2023-05-22T14:48:13.119Z,23.80
2023-05-22T14:50:40.226Z,23.80
2023-05-22T14:53:07.271Z,23.60
2023-05-22T14:55:35.723Z,24.10
2023-05-22T14:58:02.756Z,24.60
2023-05-22T15:00:29.754Z,24.50
2023-05-22T15:02:57.272Z,24.40
2023-05-22T15:05:26.733Z,24.50
2023-05-22T15:07:54.997Z,24.50
2023-05-22T15:10:25.860Z,24.40
2023-05-22T15:12:53.273Z,24.60
2023-05-22T15:15:20.967Z,24.40
2023-05-22T15:17:48.087Z,24.70
2023-05-22T15:20:15.277Z,24.80
2023-05-22T15:22:42.274Z,24.70
2023-05-22T15:25:17.488Z,24.70
2023-05-22T15:27:44.615Z,24.50
2023-05-22T15:30:12.369Z,24.30
2023-05-22T15:32:39.632Z,24.20
2023-05-22T15:35:07.788Z,24.40
2023-05-22T15:37:36.555Z,24.50
2023-05-22T15:40:04.544Z,24.10
2023-05-22T15:42:31.749Z,23.90
2023-05-22T15:45:00.275Z,23.80
2023-05-22T15:47:27.563Z,23.90
2023-05-22T15:49:54.623Z,23.70
2023-05-22T15:52:23.453Z,23.60
2023-05-22T15:54:50.683Z,23.70
2023-05-22T15:57:17.793Z,23.70
2023-05-22T15:59:47.395Z,23.60
2023-05-22T16:02:14.710Z,23.60
2023-05-22T16:04:41.856Z,23.40
2023-05-22T16:07:08.885Z,23.40
2023-05-22T16:09:36.357Z,23.40
2023-05-22T16:12:05.135Z,23.40
2023-05-22T16:14:32.185Z,23.20
2023-05-22T16:16:59.369Z,23.40
2023-05-22T16:19:28.925Z,23.20
2023-05-22T16:21:56.345Z,23.40
2023-05-22T16:24:23.983Z,23.20
2023-05-22T16:26:50.975Z,23.40
2023-05-22T16:29:21.372Z,23.50
2023-05-22T16:31:52.164Z,23.70
2023-05-22T16:34:19.313Z,23.80
2023-05-22T16:36:46.862Z,23.80
2023-05-22T16:39:15.486Z,23.90
2023-05-22T16:41:42.806Z,23.80
2023-05-22T16:44:09.969Z,23.80
2023-05-22T16:46:36.927Z,23.70
2023-05-22T16:49:04.056Z,23.70
2023-05-22T16:51:31.252Z,23.70
2023-05-22T16:53:58.248Z,23.80
2023-05-22T16:56:26.046Z,23.90
2023-05-22T16:58:53.167Z,23.70
2023-05-22T17:01:21.918Z,23.40
2023-05-22T17:03:49.188Z,23.30
2023-05-22T17:06:18.285Z,23.00
2023-05-22T17:08:47.005Z,23.30
2023-05-22T17:11:14.139Z,23.40
2023-05-22T17:13:41.317Z,23.30
2023-05-22T17:16:08.463Z,23.30
2023-05-22T17:18:37.203Z,23.10
2023-05-22T17:21:04.576Z,23.00
2023-05-22T17:23:31.741Z,22.80
2023-05-22T17:25:59.024Z,22.80
2023-05-22T17:28:26.124Z,22.70
2023-05-22T17:30:53.195Z,22.70
2023-05-22T17:33:20.399Z,22.70
2023-05-22T17:35:47.704Z,22.50
2023-05-22T17:38:15.314Z,22.60
2023-05-22T17:40:45.887Z,22.50
2023-05-22T17:43:13.779Z,22.50
2023-05-22T17:45:41.830Z,22.50
2023-05-22T17:48:11.279Z,22.40
2023-05-22T17:50:40.147Z,22.30
2023-05-22T17:53:07.562Z,22.10
2023-05-22T17:55:34.704Z,22.00
2023-05-22T17:58:02.304Z,22.00
2023-05-22T18:00:32.026Z,22.00
2023-05-22T18:02:59.307Z,21.90
2023-05-22T18:05:26.566Z,21.80
2023-05-22T18:07:55.082Z,21.80
2023-05-22T18:10:24.155Z,21.80
2023-05-22T18:12:54.139Z,21.60
2023-05-22T18:15:21.764Z,21.60
2023-05-22T18:17:53.861Z,21.60
2023-05-22T18:20:21.154Z,21.60
2023-05-22T18:22:49.843Z,21.40
2023-05-22T18:25:17.002Z,21.20
2023-05-22T18:27:44.285Z,21.30
2023-05-22T18:30:13.194Z,21.20
2023-05-22T18:32:41.453Z,21.20
2023-05-22T18:35:11.545Z,21.20
2023-05-22T18:37:41.240Z,21.10
2023-05-22T18:40:10.311Z,21.00
2023-05-22T18:42:38.571Z,21.00
2023-05-22T18:45:07.861Z,20.80
2023-05-22T18:47:35.191Z,20.80
2023-05-22T18:50:02.911Z,20.70
2023-05-22T18:52:31.596Z,20.70
2023-05-22T18:54:59.456Z,20.70
2023-05-22T18:57:27.377Z,20.70
2023-05-22T18:59:54.630Z,20.70
2023-05-22T19:02:22.439Z,20.50
2023-05-22T19:04:53.404Z,20.50
2023-05-22T19:07:21.689Z,20.40
2023-05-22T19:09:50.696Z,20.30
2023-05-22T19:12:18.068Z,20.20
2023-05-22T19:14:45.189Z,20.30
2023-05-22T19:17:12.655Z,20.10
2023-05-22T19:19:39.896Z,20.10
2023-05-22T19:22:07.069Z,20.00
2023-05-22T19:24:36.519Z,20.00
2023-05-22T19:27:03.830Z,19.90
2023-05-22T19:29:30.920Z,19.70
2023-05-22T19:32:01.623Z,19.60
2023-05-22T19:34:29.727Z,19.50
2023-05-22T19:36:57.939Z,19.50
2023-05-22T19:39:25.911Z,19.40
2023-05-22T19:41:56.481Z,19.30
2023-05-22T19:44:24.757Z,19.30
2023-05-22T19:46:51.763Z,19.30
2023-05-22T19:49:19.064Z,19.20
2023-05-22T19:51:48.973Z,19.20
2023-05-22T19:54:16.657Z,19.10
2023-05-22T19:56:43.800Z,19.10
2023-05-22T19:59:13.605Z,19.10
2023-05-22T20:01:40.741Z,19.00
2023-05-22T20:04:08.267Z,18.90
2023-05-22T20:06:36.446Z,18.90
2023-05-22T20:09:05.794Z,18.90
2023-05-22T20:11:33.075Z,18.80
2023-05-22T20:14:02.559Z,18.80
2023-05-22T20:16:31.174Z,18.70
2023-05-22T20:18:58.426Z,18.60
2023-05-22T20:21:25.696Z,18.60
2023-05-22T20:23:53.771Z,18.50
2023-05-22T20:26:21.789Z,18.50
2023-05-22T20:28:48.944Z,18.30
2023-05-22T20:31:16.206Z,18.20
2023-05-22T20:33:43.438Z,18.10
2023-05-22T20:36:10.774Z,18.20
2023-05-22T20:38:40.740Z,18.20
2023-05-22T20:41:09.654Z,18.10
2023-05-22T20:43:37.333Z,18.00
2023-05-22T20:46:04.465Z,18.00
2023-05-22T20:48:31.555Z,18.00
2023-05-22T20:50:58.720Z,17.80
2023-05-22T20:53:26.053Z,17.80
2023-05-22T20:55:53.453Z,17.80
2023-05-22T20:58:20.780Z,17.80
2023-05-22T21:00:49.526Z,17.60
2023-05-22T21:03:17.878Z,17.60
2023-05-22T21:05:44.949Z,17.50
2023-05-22T21:08:11.949Z,17.50
2023-05-22T21:10:39.050Z,17.20
2023-05-22T21:13:06.767Z,17.30
2023-05-22T21:15:33.683Z,17.10
2023-05-22T21:18:00.776Z,17.00
2023-05-22T21:20:27.918Z,17.00
2023-05-22T21:22:55.001Z,16.90
2023-05-22T21:25:21.966Z,16.80
2023-05-22T21:27:49.330Z,16.70
2023-05-22T21:30:16.434Z,16.40
2023-05-22T21:32:43.560Z,16.40
2023-05-22T21:35:10.734Z,16.30
2023-05-22T21:37:37.869Z,16.20
2023-05-22T21:40:05.400Z,16.10
2023-05-22T21:42:45.038Z,16.10
2023-05-22T21:45:13.995Z,16.20
2023-05-22T21:47:42.413Z,16.20
2023-05-22T21:50:10.125Z,16.20
2023-05-22T21:52:37.141Z,16.10
2023-05-22T21:55:04.591Z,16.10
2023-05-22T21:57:31.691Z,16.00
2023-05-22T21:59:58.796Z,16.00
2023-05-22T22:02:26.074Z,16.20
2023-05-22T22:04:53.076Z,16.10
2023-05-22T22:07:20.241Z,16.20
2023-05-22T22:09:47.213Z,16.10
2023-05-22T22:12:14.203Z,16.00
2023-05-22T22:14:41.150Z,15.90
2023-05-22T22:17:09.143Z,16.00
2023-05-22T22:19:36.308Z,15.90
2023-05-22T22:22:03.588Z,16.10
2023-05-22T22:24:30.643Z,15.90
2023-05-22T22:26:57.594Z,16.00
2023-05-22T22:29:24.580Z,15.90
2023-05-22T22:31:52.939Z,15.90
2023-05-22T22:34:19.956Z,16.00
2023-05-22T22:36:47.456Z,15.90
2023-05-22T22:39:14.543Z,15.80
2023-05-22T22:41:43.276Z,15.80
2023-05-22T22:44:10.684Z,15.80
2023-05-22T22:46:38.013Z,15.70
2023-05-22T22:49:05.237Z,15.80
2023-05-22T22:51:32.267Z,15.70
2023-05-22T22:53:59.281Z,15.80
2023-05-22T22:56:29.432Z,15.70
2023-05-22T22:58:57.436Z,15.70
2023-05-22T23:01:24.921Z,15.70
2023-05-22T23:03:52.233Z,15.80
2023-05-22T23:06:19.690Z,15.80
2023-05-22T23:08:46.738Z,15.80
2023-05-22T23:11:13.792Z,15.80
2023-05-22T23:13:43.190Z,15.80
2023-05-22T23:16:10.442Z,15.70
2023-05-22T23:18:37.647Z,15.70
2023-05-22T23:21:04.737Z,15.60
2023-05-22T23:23:32.041Z,15.60
2023-05-22T23:25:59.236Z,15.70
2023-05-22T23:28:26.325Z,15.60
2023-05-22T23:30:53.317Z,15.60
2023-05-22T23:33:21.472Z,15.60
2023-05-22T23:35:48.455Z,15.70
2023-05-22T23:38:15.498Z,15.70
2023-05-22T23:40:42.672Z,15.70
2023-05-22T23:43:09.652Z,15.60
2023-05-22T23:45:36.688Z,15.70
2023-05-22T23:48:04.240Z,15.70
2023-05-22T23:50:31.379Z,15.80
2023-05-22T23:52:58.345Z,15.80
2023-05-22T23:55:25.349Z,15.70
2023-05-22T23:57:52.321Z,15.80
